< < Back
Terminal Aerodrome Forecast


Current Version              Previous Versions:   1  2  3  4  5  6  7  8  9  

Terminal Aerodrome Forecast

197
FTUS42 KCAE 010242 AAA
TAFAGS
TAF AMD
KAGS 010242Z 0103/0124 00000KT P6SM SKC
     FM010600 VRB03KT 3SM BR SCT250
      TEMPO 0110/0114 1 1/2SM BR
     FM011500 VRB04KT P6SM SCT250=

Latest METAR

953
SAUS70 KWBC 011000 RRO
MTRAGS
METAR KAGS 010953Z AUTO 00000KT 10SM CLR 19/19 A3008 RMK AO2 SLP184
T01940189


USA.gov is the U.S. government's official web portal to all federal, state and local government web resources and services.